Torbali, Turkey
Current Conditions -  °F | °C
As of 8:20 PM on Thursday 30 Oct 2014 (Local Time) from LTBJ Reporting Station
Scattered Clouds Scattered Clouds  
Wind Chill: 61°   Ceiling: Unl
Heat Index: 61°   Visibility: 6mi
Dew Point: 54°   Wind: 9mph
Humidity: 77%   Direction: 360°N
Pressure: 29.97"   Gusts: NA
Location:  38.17°N, 27.36°E
Report Text: LTBJ 301720Z 36008KT 9999 SCT030 16/12 Q1015 NOSIG
Loading
Personal Weather Stations






























Interactive Weather Map
Tropical Storm Tracking
New forecast layout! Learn more

10-Day Weather Forecast

Advertisements
Track Severe Weather on mobile